sensor_id;sensor_type;location;lat;lon;timestamp;P1;durP1;ratioP1;P2;durP2;ratioP2
80187;SDS011;73735;52.134;5.436;2023-11-21T00:01:02;15.55;;;6.72;;
80187;SDS011;73735;52.134;5.436;2023-11-21T00:03:30;14.90;;;5.70;;
80187;SDS011;73735;52.134;5.436;2023-11-21T00:05:58;14.38;;;5.88;;
80187;SDS011;73735;52.134;5.436;2023-11-21T00:08:24;16.20;;;7.25;;
80187;SDS011;73735;52.134;5.436;2023-11-21T00:10:51;14.93;;;6.07;;
80187;SDS011;73735;52.134;5.436;2023-11-21T00:13:17;13.73;;;5.72;;
80187;SDS011;73735;52.134;5.436;2023-11-21T00:15:44;13.38;;;6.00;;
80187;SDS011;73735;52.134;5.436;2023-11-21T00:18:10;13.52;;;5.75;;
80187;SDS011;73735;52.134;5.436;2023-11-21T00:20:37;16.63;;;5.68;;
80187;SDS011;73735;52.134;5.436;2023-11-21T00:23:04;14.60;;;5.90;;
80187;SDS011;73735;52.134;5.436;2023-11-21T00:25:30;20.98;;;6.03;;
80187;SDS011;73735;52.134;5.436;2023-11-21T00:27:58;19.95;;;6.57;;
80187;SDS011;73735;52.134;5.436;2023-11-21T00:30:24;16.92;;;6.18;;
80187;SDS011;73735;52.134;5.436;2023-11-21T00:32:50;14.52;;;6.00;;
80187;SDS011;73735;52.134;5.436;2023-11-21T00:35:17;17.75;;;7.20;;
80187;SDS011;73735;52.134;5.436;2023-11-21T00:37:43;15.65;;;6.28;;
80187;SDS011;73735;52.134;5.436;2023-11-21T00:40:11;16.17;;;6.93;;
80187;SDS011;73735;52.134;5.436;2023-11-21T00:42:38;15.57;;;5.90;;
80187;SDS011;73735;52.134;5.436;2023-11-21T00:45:06;15.65;;;6.07;;
80187;SDS011;73735;52.134;5.436;2023-11-21T00:47:33;14.30;;;5.47;;
80187;SDS011;73735;52.134;5.436;2023-11-21T00:49:59;14.05;;;6.25;;
80187;SDS011;73735;52.134;5.436;2023-11-21T00:52:26;14.00;;;6.28;;
80187;SDS011;73735;52.134;5.436;2023-11-21T00:54:52;16.48;;;6.07;;
80187;SDS011;73735;52.134;5.436;2023-11-21T00:57:19;14.30;;;5.78;;
80187;SDS011;73735;52.134;5.436;2023-11-21T00:59:46;13.00;;;5.60;;
80187;SDS011;73735;52.134;5.436;2023-11-21T01:02:12;13.63;;;5.93;;
80187;SDS011;73735;52.134;5.436;2023-11-21T01:04:39;11.25;;;5.80;;
80187;SDS011;73735;52.134;5.436;2023-11-21T01:07:05;12.70;;;5.30;;
80187;SDS011;73735;52.134;5.436;2023-11-21T01:09:31;12.57;;;5.38;;
80187;SDS011;73735;52.134;5.436;2023-11-21T01:11:58;11.98;;;5.25;;
80187;SDS011;73735;52.134;5.436;2023-11-21T01:14:26;9.88;;;4.85;;
80187;SDS011;73735;52.134;5.436;2023-11-21T01:16:53;12.75;;;5.65;;
80187;SDS011;73735;52.134;5.436;2023-11-21T01:19:20;12.60;;;5.13;;
80187;SDS011;73735;52.134;5.436;2023-11-21T01:21:46;10.02;;;4.95;;
80187;SDS011;73735;52.134;5.436;2023-11-21T01:24:13;11.45;;;5.25;;
80187;SDS011;73735;52.134;5.436;2023-11-21T01:26:39;11.23;;;4.93;;
80187;SDS011;73735;52.134;5.436;2023-11-21T01:29:06;11.43;;;5.45;;
80187;SDS011;73735;52.134;5.436;2023-11-21T01:31:33;9.52;;;4.68;;
80187;SDS011;73735;52.134;5.436;2023-11-21T01:33:59;10.70;;;5.35;;
80187;SDS011;73735;52.134;5.436;2023-11-21T01:36:32;9.77;;;4.30;;
80187;SDS011;73735;52.134;5.436;2023-11-21T01:38:59;11.25;;;5.00;;
80187;SDS011;73735;52.134;5.436;2023-11-21T01:41:26;11.05;;;4.50;;
80187;SDS011;73735;52.134;5.436;2023-11-21T01:43:55;10.07;;;4.82;;
80187;SDS011;73735;52.134;5.436;2023-11-21T01:46:22;12.75;;;5.15;;
80187;SDS011;73735;52.134;5.436;2023-11-21T01:48:49;11.20;;;5.07;;
80187;SDS011;73735;52.134;5.436;2023-11-21T01:51:16;12.63;;;5.32;;
80187;SDS011;73735;52.134;5.436;2023-11-21T01:53:44;9.57;;;4.68;;
80187;SDS011;73735;52.134;5.436;2023-11-21T01:56:13;10.73;;;4.90;;
80187;SDS011;73735;52.134;5.436;2023-11-21T01:58:40;10.10;;;4.60;;
80187;SDS011;73735;52.134;5.436;2023-11-21T02:01:08;10.68;;;5.05;;
80187;SDS011;73735;52.134;5.436;2023-11-21T02:03:36;10.60;;;4.50;;
80187;SDS011;73735;52.134;5.436;2023-11-21T02:06:02;9.10;;;4.60;;
80187;SDS011;73735;52.134;5.436;2023-11-21T02:08:29;10.65;;;4.47;;
80187;SDS011;73735;52.134;5.436;2023-11-21T02:10:56;9.90;;;4.72;;
80187;SDS011;73735;52.134;5.436;2023-11-21T02:13:23;10.48;;;4.80;;
80187;SDS011;73735;52.134;5.436;2023-11-21T02:15:50;9.32;;;4.05;;
80187;SDS011;73735;52.134;5.436;2023-11-21T02:18:18;9.82;;;4.60;;
80187;SDS011;73735;52.134;5.436;2023-11-21T02:20:45;10.57;;;5.18;;
80187;SDS011;73735;52.134;5.436;2023-11-21T02:23:12;12.68;;;5.30;;
80187;SDS011;73735;52.134;5.436;2023-11-21T02:25:39;10.32;;;5.00;;
80187;SDS011;73735;52.134;5.436;2023-11-21T02:28:05;14.02;;;4.88;;
80187;SDS011;73735;52.134;5.436;2023-11-21T02:30:33;12.27;;;4.95;;
80187;SDS011;73735;52.134;5.436;2023-11-21T02:32:59;9.82;;;4.60;;
80187;SDS011;73735;52.134;5.436;2023-11-21T02:35:27;9.32;;;4.75;;
80187;SDS011;73735;52.134;5.436;2023-11-21T02:37:54;10.45;;;4.15;;
80187;SDS011;73735;52.134;5.436;2023-11-21T02:40:21;11.23;;;4.68;;
80187;SDS011;73735;52.134;5.436;2023-11-21T02:42:48;10.38;;;4.57;;
80187;SDS011;73735;52.134;5.436;2023-11-21T02:45:14;10.63;;;4.68;;
80187;SDS011;73735;52.134;5.436;2023-11-21T02:47:44;13.68;;;4.90;;
80187;SDS011;73735;52.134;5.436;2023-11-21T02:50:11;8.27;;;4.57;;
80187;SDS011;73735;52.134;5.436;2023-11-21T02:52:38;11.20;;;4.53;;
80187;SDS011;73735;52.134;5.436;2023-11-21T02:55:06;11.30;;;4.50;;
80187;SDS011;73735;52.134;5.436;2023-11-21T02:57:35;11.30;;;4.32;;
80187;SDS011;73735;52.134;5.436;2023-11-21T03:00:02;10.93;;;4.68;;
80187;SDS011;73735;52.134;5.436;2023-11-21T03:02:29;11.75;;;4.75;;
80187;SDS011;73735;52.134;5.436;2023-11-21T03:04:56;11.23;;;4.88;;
80187;SDS011;73735;52.134;5.436;2023-11-21T03:07:22;10.88;;;4.70;;
80187;SDS011;73735;52.134;5.436;2023-11-21T03:09:49;11.07;;;4.55;;
80187;SDS011;73735;52.134;5.436;2023-11-21T03:12:15;11.70;;;5.00;;
80187;SDS011;73735;52.134;5.436;2023-11-21T03:14:42;10.57;;;4.72;;
80187;SDS011;73735;52.134;5.436;2023-11-21T03:17:08;11.02;;;4.97;;
80187;SDS011;73735;52.134;5.436;2023-11-21T03:19:35;9.80;;;4.40;;
80187;SDS011;73735;52.134;5.436;2023-11-21T03:22:01;9.80;;;4.72;;
80187;SDS011;73735;52.134;5.436;2023-11-21T03:24:28;11.15;;;4.32;;
80187;SDS011;73735;52.134;5.436;2023-11-21T03:26:54;9.43;;;4.80;;
80187;SDS011;73735;52.134;5.436;2023-11-21T03:29:21;11.48;;;5.25;;
80187;SDS011;73735;52.134;5.436;2023-11-21T03:31:47;10.05;;;4.55;;
80187;SDS011;73735;52.134;5.436;2023-11-21T03:34:23;12.38;;;5.00;;
80187;SDS011;73735;52.134;5.436;2023-11-21T03:36:52;9.80;;;4.28;;
80187;SDS011;73735;52.134;5.436;2023-11-21T03:39:19;9.40;;;4.22;;
80187;SDS011;73735;52.134;5.436;2023-11-21T03:41:46;10.60;;;4.40;;
80187;SDS011;73735;52.134;5.436;2023-11-21T03:44:13;12.40;;;4.60;;
80187;SDS011;73735;52.134;5.436;2023-11-21T03:46:40;12.40;;;4.60;;
80187;SDS011;73735;52.134;5.436;2023-11-21T03:49:07;9.05;;;4.47;;
80187;SDS011;73735;52.134;5.436;2023-11-21T03:51:33;8.85;;;4.18;;
80187;SDS011;73735;52.134;5.436;2023-11-21T03:54:00;11.10;;;4.40;;
80187;SDS011;73735;52.134;5.436;2023-11-21T03:56:26;10.32;;;4.35;;
80187;SDS011;73735;52.134;5.436;2023-11-21T03:58:53;9.57;;;4.35;;
80187;SDS011;73735;52.134;5.436;2023-11-21T04:01:20;11.32;;;4.50;;
80187;SDS011;73735;52.134;5.436;2023-11-21T04:03:48;10.25;;;4.22;;
80187;SDS011;73735;52.134;5.436;2023-11-21T04:06:16;9.52;;;4.32;;
80187;SDS011;73735;52.134;5.436;2023-11-21T04:08:44;11.77;;;4.45;;
80187;SDS011;73735;52.134;5.436;2023-11-21T04:11:11;10.30;;;4.45;;
80187;SDS011;73735;52.134;5.436;2023-11-21T04:13:39;11.27;;;4.32;;
80187;SDS011;73735;52.134;5.436;2023-11-21T04:16:06;10.20;;;4.63;;
80187;SDS011;73735;52.134;5.436;2023-11-21T04:18:35;12.07;;;4.80;;
80187;SDS011;73735;52.134;5.436;2023-11-21T04:21:02;9.63;;;4.40;;
80187;SDS011;73735;52.134;5.436;2023-11-21T04:25:57;9.38;;;4.22;;
80187;SDS011;73735;52.134;5.436;2023-11-21T04:28:25;11.38;;;4.50;;
80187;SDS011;73735;52.134;5.436;2023-11-21T04:30:51;11.32;;;4.60;;
80187;SDS011;73735;52.134;5.436;2023-11-21T04:33:18;11.07;;;4.88;;
80187;SDS011;73735;52.134;5.436;2023-11-21T04:35:44;11.38;;;4.93;;
80187;SDS011;73735;52.134;5.436;2023-11-21T04:40:38;10.75;;;4.22;;
80187;SDS011;73735;52.134;5.436;2023-11-21T04:43:05;10.57;;;4.85;;
80187;SDS011;73735;52.134;5.436;2023-11-21T04:45:31;8.88;;;4.75;;
80187;SDS011;73735;52.134;5.436;2023-11-21T04:47:58;14.88;;;4.80;;
80187;SDS011;73735;52.134;5.436;2023-11-21T04:50:24;12.50;;;4.72;;
80187;SDS011;73735;52.134;5.436;2023-11-21T04:52:53;13.63;;;5.38;;
80187;SDS011;73735;52.134;5.436;2023-11-21T04:55:20;9.75;;;4.78;;
80187;SDS011;73735;52.134;5.436;2023-11-21T04:57:46;11.80;;;4.75;;
80187;SDS011;73735;52.134;5.436;2023-11-21T05:00:13;11.88;;;5.38;;
80187;SDS011;73735;52.134;5.436;2023-11-21T05:02:40;11.13;;;5.18;;
80187;SDS011;73735;52.134;5.436;2023-11-21T05:05:08;10.98;;;4.95;;
80187;SDS011;73735;52.134;5.436;2023-11-21T05:07:36;9.98;;;4.95;;
80187;SDS011;73735;52.134;5.436;2023-11-21T05:10:04;9.75;;;4.90;;
80187;SDS011;73735;52.134;5.436;2023-11-21T05:12:38;12.82;;;4.65;;
80187;SDS011;73735;52.134;5.436;2023-11-21T05:15:05;11.80;;;5.13;;
80187;SDS011;73735;52.134;5.436;2023-11-21T05:17:39;12.27;;;4.50;;
80187;SDS011;73735;52.134;5.436;2023-11-21T05:20:10;12.85;;;5.10;;
80187;SDS011;73735;52.134;5.436;2023-11-21T05:22:38;12.13;;;5.07;;
80187;SDS011;73735;52.134;5.436;2023-11-21T05:25:05;11.88;;;5.00;;
80187;SDS011;73735;52.134;5.436;2023-11-21T05:27:34;11.55;;;4.93;;
80187;SDS011;73735;52.134;5.436;2023-11-21T05:30:04;11.43;;;5.53;;
80187;SDS011;73735;52.134;5.436;2023-11-21T05:32:32;11.68;;;5.60;;
80187;SDS011;73735;52.134;5.436;2023-11-21T05:35:00;11.60;;;4.75;;
80187;SDS011;73735;52.134;5.436;2023-11-21T05:37:27;11.88;;;4.90;;
80187;SDS011;73735;52.134;5.436;2023-11-21T05:39:53;11.30;;;4.95;;
80187;SDS011;73735;52.134;5.436;2023-11-21T05:42:23;13.10;;;4.85;;
80187;SDS011;73735;52.134;5.436;2023-11-21T05:44:49;13.65;;;5.13;;
80187;SDS011;73735;52.134;5.436;2023-11-21T05:47:16;10.30;;;5.55;;
80187;SDS011;73735;52.134;5.436;2023-11-21T05:49:43;9.93;;;5.13;;
80187;SDS011;73735;52.134;5.436;2023-11-21T05:52:11;14.70;;;5.03;;
80187;SDS011;73735;52.134;5.436;2023-11-21T05:54:37;11.80;;;4.70;;
80187;SDS011;73735;52.134;5.436;2023-11-21T05:57:04;12.02;;;5.03;;
80187;SDS011;73735;52.134;5.436;2023-11-21T05:59:30;13.35;;;5.03;;
80187;SDS011;73735;52.134;5.436;2023-11-21T06:01:57;15.35;;;5.47;;
80187;SDS011;73735;52.134;5.436;2023-11-21T06:04:24;11.05;;;4.97;;
80187;SDS011;73735;52.134;5.436;2023-11-21T06:06:52;9.73;;;4.35;;
80187;SDS011;73735;52.134;5.436;2023-11-21T06:09:19;11.60;;;5.15;;
80187;SDS011;73735;52.134;5.436;2023-11-21T06:11:46;12.90;;;5.35;;
80187;SDS011;73735;52.134;5.436;2023-11-21T06:14:13;12.45;;;5.25;;
80187;SDS011;73735;52.134;5.436;2023-11-21T06:16:39;10.43;;;5.00;;
80187;SDS011;73735;52.134;5.436;2023-11-21T06:19:07;12.18;;;5.00;;
80187;SDS011;73735;52.134;5.436;2023-11-21T06:21:33;12.95;;;5.07;;
80187;SDS011;73735;52.134;5.436;2023-11-21T06:24:00;11.75;;;4.70;;
80187;SDS011;73735;52.134;5.436;2023-11-21T06:26:27;11.15;;;5.15;;
80187;SDS011;73735;52.134;5.436;2023-11-21T06:28:53;11.95;;;5.20;;
80187;SDS011;73735;52.134;5.436;2023-11-21T06:31:20;12.38;;;5.22;;
80187;SDS011;73735;52.134;5.436;2023-11-21T06:33:48;12.98;;;4.93;;
80187;SDS011;73735;52.134;5.436;2023-11-21T06:36:14;14.73;;;5.18;;
80187;SDS011;73735;52.134;5.436;2023-11-21T06:38:41;15.68;;;5.68;;
80187;SDS011;73735;52.134;5.436;2023-11-21T06:41:07;12.93;;;5.28;;
80187;SDS011;73735;52.134;5.436;2023-11-21T06:43:34;11.20;;;5.05;;
80187;SDS011;73735;52.134;5.436;2023-11-21T06:46:01;12.20;;;5.30;;
80187;SDS011;73735;52.134;5.436;2023-11-21T06:48:27;13.07;;;5.53;;
80187;SDS011;73735;52.134;5.436;2023-11-21T06:50:54;14.57;;;5.57;;
80187;SDS011;73735;52.134;5.436;2023-11-21T06:53:20;11.95;;;4.95;;
80187;SDS011;73735;52.134;5.436;2023-11-21T06:55:47;11.27;;;5.07;;
80187;SDS011;73735;52.134;5.436;2023-11-21T06:58:13;17.42;;;5.78;;
80187;SDS011;73735;52.134;5.436;2023-11-21T07:00:41;11.60;;;5.18;;
80187;SDS011;73735;52.134;5.436;2023-11-21T07:03:12;12.50;;;5.10;;
80187;SDS011;73735;52.134;5.436;2023-11-21T07:05:39;11.20;;;4.88;;
80187;SDS011;73735;52.134;5.436;2023-11-21T07:08:05;13.98;;;5.05;;
80187;SDS011;73735;52.134;5.436;2023-11-21T07:10:34;10.60;;;4.80;;
80187;SDS011;73735;52.134;5.436;2023-11-21T07:13:02;10.48;;;4.22;;
80187;SDS011;73735;52.134;5.436;2023-11-21T07:15:29;13.18;;;5.20;;
80187;SDS011;73735;52.134;5.436;2023-11-21T07:17:55;12.80;;;5.22;;
80187;SDS011;73735;52.134;5.436;2023-11-21T07:20:22;11.10;;;4.53;;
80187;SDS011;73735;52.134;5.436;2023-11-21T07:22:49;11.45;;;4.88;;
80187;SDS011;73735;52.134;5.436;2023-11-21T07:25:16;10.02;;;4.25;;
80187;SDS011;73735;52.134;5.436;2023-11-21T07:27:43;11.40;;;5.32;;
80187;SDS011;73735;52.134;5.436;2023-11-21T07:30:09;13.75;;;4.82;;
80187;SDS011;73735;52.134;5.436;2023-11-21T07:32:37;11.32;;;4.47;;
80187;SDS011;73735;52.134;5.436;2023-11-21T07:35:06;12.50;;;4.60;;
80187;SDS011;73735;52.134;5.436;2023-11-21T07:37:34;10.98;;;4.65;;
80187;SDS011;73735;52.134;5.436;2023-11-21T07:40:00;11.73;;;4.38;;
80187;SDS011;73735;52.134;5.436;2023-11-21T07:42:27;9.60;;;4.25;;
80187;SDS011;73735;52.134;5.436;2023-11-21T07:44:53;12.73;;;4.35;;
80187;SDS011;73735;52.134;5.436;2023-11-21T07:47:20;9.57;;;3.90;;
80187;SDS011;73735;52.134;5.436;2023-11-21T07:49:46;11.57;;;4.43;;
80187;SDS011;73735;52.134;5.436;2023-11-21T07:52:13;9.90;;;4.32;;
80187;SDS011;73735;52.134;5.436;2023-11-21T07:54:42;7.75;;;3.80;;
80187;SDS011;73735;52.134;5.436;2023-11-21T07:57:09;11.52;;;4.13;;
80187;SDS011;73735;52.134;5.436;2023-11-21T07:59:40;10.25;;;3.95;;
80187;SDS011;73735;52.134;5.436;2023-11-21T08:02:07;8.75;;;3.72;;
80187;SDS011;73735;52.134;5.436;2023-11-21T08:04:33;8.18;;;3.60;;
80187;SDS011;73735;52.134;5.436;2023-11-21T08:07:01;11.00;;;3.80;;
80187;SDS011;73735;52.134;5.436;2023-11-21T08:09:30;10.60;;;3.65;;
80187;SDS011;73735;52.134;5.436;2023-11-21T08:11:56;11.50;;;4.00;;
80187;SDS011;73735;52.134;5.436;2023-11-21T08:14:23;10.10;;;3.55;;
80187;SDS011;73735;52.134;5.436;2023-11-21T08:16:51;10.50;;;3.67;;
80187;SDS011;73735;52.134;5.436;2023-11-21T08:19:18;8.07;;;3.42;;
80187;SDS011;73735;52.134;5.436;2023-11-21T08:21:45;13.82;;;3.58;;
80187;SDS011;73735;52.134;5.436;2023-11-21T08:24:12;9.20;;;3.78;;
80187;SDS011;73735;52.134;5.436;2023-11-21T08:26:38;9.35;;;3.30;;
80187;SDS011;73735;52.134;5.436;2023-11-21T08:29:04;7.25;;;3.15;;
80187;SDS011;73735;52.134;5.436;2023-11-21T08:31:33;9.45;;;3.17;;
80187;SDS011;73735;52.134;5.436;2023-11-21T08:34:00;7.38;;;3.08;;
80187;SDS011;73735;52.134;5.436;2023-11-21T08:36:29;9.75;;;3.13;;
80187;SDS011;73735;52.134;5.436;2023-11-21T08:38:57;11.32;;;3.42;;
80187;SDS011;73735;52.134;5.436;2023-11-21T08:41:24;8.88;;;3.28;;
80187;SDS011;73735;52.134;5.436;2023-11-21T08:43:51;9.48;;;3.22;;
80187;SDS011;73735;52.134;5.436;2023-11-21T08:46:18;8.45;;;2.97;;
80187;SDS011;73735;52.134;5.436;2023-11-21T08:48:45;7.90;;;3.20;;
80187;SDS011;73735;52.134;5.436;2023-11-21T08:51:12;8.15;;;3.58;;
80187;SDS011;73735;52.134;5.436;2023-11-21T08:53:38;9.70;;;3.65;;
80187;SDS011;73735;52.134;5.436;2023-11-21T08:56:05;9.15;;;3.60;;
80187;SDS011;73735;52.134;5.436;2023-11-21T08:58:32;11.18;;;3.47;;
80187;SDS011;73735;52.134;5.436;2023-11-21T09:00:58;11.65;;;3.90;;
80187;SDS011;73735;52.134;5.436;2023-11-21T09:03:25;11.40;;;4.22;;
80187;SDS011;73735;52.134;5.436;2023-11-21T09:05:51;12.27;;;5.03;;
80187;SDS011;73735;52.134;5.436;2023-11-21T09:08:18;10.57;;;4.22;;
80187;SDS011;73735;52.134;5.436;2023-11-21T09:10:44;11.82;;;4.35;;
80187;SDS011;73735;52.134;5.436;2023-11-21T09:13:13;12.15;;;4.78;;
80187;SDS011;73735;52.134;5.436;2023-11-21T09:15:40;10.82;;;5.05;;
80187;SDS011;73735;52.134;5.436;2023-11-21T09:18:06;12.45;;;5.30;;
80187;SDS011;73735;52.134;5.436;2023-11-21T09:20:33;12.68;;;5.15;;
80187;SDS011;73735;52.134;5.436;2023-11-21T09:22:59;16.38;;;5.30;;
80187;SDS011;73735;52.134;5.436;2023-11-21T09:25:27;14.18;;;5.88;;
80187;SDS011;73735;52.134;5.436;2023-11-21T09:27:55;12.52;;;5.25;;
80187;SDS011;73735;52.134;5.436;2023-11-21T09:30:23;15.68;;;5.93;;
80187;SDS011;73735;52.134;5.436;2023-11-21T09:32:51;12.60;;;5.53;;
80187;SDS011;73735;52.134;5.436;2023-11-21T09:35:17;16.42;;;6.07;;
80187;SDS011;73735;52.134;5.436;2023-11-21T09:37:44;14.00;;;5.57;;
80187;SDS011;73735;52.134;5.436;2023-11-21T09:40:15;12.63;;;5.55;;
80187;SDS011;73735;52.134;5.436;2023-11-21T09:42:57;15.13;;;5.40;;
80187;SDS011;73735;52.134;5.436;2023-11-21T09:45:25;14.63;;;5.97;;
80187;SDS011;73735;52.134;5.436;2023-11-21T09:47:57;12.85;;;6.05;;
80187;SDS011;73735;52.134;5.436;2023-11-21T09:50:24;14.00;;;5.78;;
80187;SDS011;73735;52.134;5.436;2023-11-21T09:55:51;14.55;;;5.97;;
80187;SDS011;73735;52.134;5.436;2023-11-21T09:58:19;12.80;;;5.22;;
80187;SDS011;73735;52.134;5.436;2023-11-21T10:00:48;11.52;;;5.25;;
80187;SDS011;73735;52.134;5.436;2023-11-21T10:03:15;14.82;;;4.50;;
80187;SDS011;73735;52.134;5.436;2023-11-21T10:05:43;12.40;;;5.25;;
80187;SDS011;73735;52.134;5.436;2023-11-21T10:08:12;13.15;;;5.40;;
80187;SDS011;73735;52.134;5.436;2023-11-21T10:10:42;12.57;;;5.32;;
80187;SDS011;73735;52.134;5.436;2023-11-21T10:13:16;14.25;;;4.72;;
80187;SDS011;73735;52.134;5.436;2023-11-21T10:15:49;12.65;;;4.85;;
80187;SDS011;73735;52.134;5.436;2023-11-21T10:18:17;11.95;;;5.40;;
80187;SDS011;73735;52.134;5.436;2023-11-21T10:20:44;12.10;;;4.90;;
80187;SDS011;73735;52.134;5.436;2023-11-21T10:23:12;12.90;;;5.15;;
80187;SDS011;73735;52.134;5.436;2023-11-21T10:25:39;13.05;;;5.35;;
80187;SDS011;73735;52.134;5.436;2023-11-21T10:28:06;11.30;;;5.00;;
80187;SDS011;73735;52.134;5.436;2023-11-21T10:30:34;10.65;;;4.80;;
80187;SDS011;73735;52.134;5.436;2023-11-21T10:33:04;9.07;;;4.63;;
80187;SDS011;73735;52.134;5.436;2023-11-21T10:35:38;9.65;;;4.00;;
80187;SDS011;73735;52.134;5.436;2023-11-21T10:38:06;11.02;;;4.28;;
80187;SDS011;73735;52.134;5.436;2023-11-21T10:40:37;10.95;;;4.70;;
80187;SDS011;73735;52.134;5.436;2023-11-21T10:43:05;15.25;;;5.57;;
80187;SDS011;73735;52.134;5.436;2023-11-21T10:45:37;13.18;;;5.43;;
80187;SDS011;73735;52.134;5.436;2023-11-21T10:48:05;15.20;;;5.20;;
80187;SDS011;73735;52.134;5.436;2023-11-21T10:50:37;15.25;;;5.85;;
80187;SDS011;73735;52.134;5.436;2023-11-21T10:53:04;13.50;;;5.15;;
80187;SDS011;73735;52.134;5.436;2023-11-21T10:55:32;10.88;;;4.15;;
80187;SDS011;73735;52.134;5.436;2023-11-21T10:58:00;9.23;;;3.88;;
80187;SDS011;73735;52.134;5.436;2023-11-21T11:00:29;8.57;;;3.72;;
80187;SDS011;73735;52.134;5.436;2023-11-21T11:02:56;8.55;;;2.90;;
80187;SDS011;73735;52.134;5.436;2023-11-21T11:05:26;12.38;;;4.68;;
80187;SDS011;73735;52.134;5.436;2023-11-21T11:07:58;10.13;;;4.07;;
80187;SDS011;73735;52.134;5.436;2023-11-21T11:10:30;11.27;;;4.35;;
80187;SDS011;73735;52.134;5.436;2023-11-21T11:12:57;10.10;;;4.20;;
80187;SDS011;73735;52.134;5.436;2023-11-21T11:15:25;9.32;;;3.97;;
80187;SDS011;73735;52.134;5.436;2023-11-21T11:17:53;11.75;;;5.13;;
80187;SDS011;73735;52.134;5.436;2023-11-21T11:20:24;10.20;;;4.40;;
80187;SDS011;73735;52.134;5.436;2023-11-21T11:34:36;12.43;;;4.90;;
80187;SDS011;73735;52.134;5.436;2023-11-21T11:37:10;12.35;;;5.20;;
80187;SDS011;73735;52.134;5.436;2023-11-21T11:39:40;10.43;;;4.38;;
80187;SDS011;73735;52.134;5.436;2023-11-21T11:42:08;12.93;;;5.00;;
80187;SDS011;73735;52.134;5.436;2023-11-21T11:47:34;10.18;;;5.20;;
80187;SDS011;73735;52.134;5.436;2023-11-21T11:50:05;11.35;;;5.15;;
80187;SDS011;73735;52.134;5.436;2023-11-21T11:52:46;10.43;;;5.40;;
80187;SDS011;73735;52.134;5.436;2023-11-21T11:55:19;11.95;;;5.05;;
80187;SDS011;73735;52.134;5.436;2023-11-21T11:57:48;13.18;;;5.20;;
80187;SDS011;73735;52.134;5.436;2023-11-21T12:02:57;11.85;;;5.30;;
80187;SDS011;73735;52.134;5.436;2023-11-21T12:05:26;12.95;;;5.45;;
80187;SDS011;73735;52.134;5.436;2023-11-21T12:10:30;11.70;;;4.90;;
80187;SDS011;73735;52.134;5.436;2023-11-21T12:12:58;13.60;;;5.63;;
80187;SDS011;73735;52.134;5.436;2023-11-21T12:15:25;11.60;;;5.63;;
80187;SDS011;73735;52.134;5.436;2023-11-21T12:20:19;13.93;;;6.13;;
80187;SDS011;73735;52.134;5.436;2023-11-21T12:22:48;14.85;;;6.32;;
80187;SDS011;73735;52.134;5.436;2023-11-21T12:25:22;12.52;;;5.75;;
80187;SDS011;73735;52.134;5.436;2023-11-21T12:27:51;17.73;;;5.97;;
80187;SDS011;73735;52.134;5.436;2023-11-21T12:30:19;17.67;;;6.72;;
80187;SDS011;73735;52.134;5.436;2023-11-21T12:32:51;14.25;;;6.00;;
80187;SDS011;73735;52.134;5.436;2023-11-21T12:35:20;14.93;;;6.47;;
80187;SDS011;73735;52.134;5.436;2023-11-21T12:37:50;14.93;;;6.15;;
80187;SDS011;73735;52.134;5.436;2023-11-21T12:40:18;15.05;;;6.50;;
80187;SDS011;73735;52.134;5.436;2023-11-21T12:42:45;15.93;;;6.47;;
80187;SDS011;73735;52.134;5.436;2023-11-21T12:48:04;13.55;;;6.28;;
80187;SDS011;73735;52.134;5.436;2023-11-21T12:50:37;16.35;;;6.22;;
80187;SDS011;73735;52.134;5.436;2023-11-21T12:53:08;13.90;;;6.20;;
80187;SDS011;73735;52.134;5.436;2023-11-21T12:58:05;15.50;;;6.18;;
80187;SDS011;73735;52.134;5.436;2023-11-21T13:00:39;16.25;;;5.97;;
80187;SDS011;73735;52.134;5.436;2023-11-21T13:03:10;16.48;;;6.65;;
80187;SDS011;73735;52.134;5.436;2023-11-21T13:05:39;14.25;;;5.88;;
80187;SDS011;73735;52.134;5.436;2023-11-21T13:08:13;14.48;;;6.32;;
80187;SDS011;73735;52.134;5.436;2023-11-21T13:10:43;12.63;;;6.05;;
80187;SDS011;73735;52.134;5.436;2023-11-21T13:13:13;11.90;;;5.50;;
80187;SDS011;73735;52.134;5.436;2023-11-21T13:15:53;12.82;;;5.35;;
80187;SDS011;73735;52.134;5.436;2023-11-21T13:18:24;12.13;;;4.65;;
80187;SDS011;73735;52.134;5.436;2023-11-21T13:20:53;12.07;;;5.22;;
80187;SDS011;73735;52.134;5.436;2023-11-21T13:23:21;11.68;;;4.93;;
80187;SDS011;73735;52.134;5.436;2023-11-21T13:25:49;9.65;;;4.30;;
80187;SDS011;73735;52.134;5.436;2023-11-21T13:28:27;13.30;;;4.93;;
80187;SDS011;73735;52.134;5.436;2023-11-21T13:30:58;8.52;;;3.40;;
80187;SDS011;73735;52.134;5.436;2023-11-21T13:33:44;8.25;;;3.00;;
80187;SDS011;73735;52.134;5.436;2023-11-21T13:36:16;6.40;;;2.45;;
80187;SDS011;73735;52.134;5.436;2023-11-21T13:38:51;6.65;;;2.13;;
80187;SDS011;73735;52.134;5.436;2023-11-21T13:41:18;6.68;;;2.55;;
80187;SDS011;73735;52.134;5.436;2023-11-21T13:43:45;6.10;;;2.38;;
80187;SDS011;73735;52.134;5.436;2023-11-21T13:46:16;5.85;;;2.33;;
80187;SDS011;73735;52.134;5.436;2023-11-21T13:48:49;7.18;;;2.70;;
80187;SDS011;73735;52.134;5.436;2023-11-21T13:51:22;9.75;;;4.13;;
80187;SDS011;73735;52.134;5.436;2023-11-21T13:53:57;9.68;;;3.75;;
80187;SDS011;73735;52.134;5.436;2023-11-21T13:56:25;10.10;;;3.90;;
80187;SDS011;73735;52.134;5.436;2023-11-21T13:58:54;10.15;;;4.50;;
80187;SDS011;73735;52.134;5.436;2023-11-21T14:01:23;12.63;;;4.70;;
80187;SDS011;73735;52.134;5.436;2023-11-21T14:03:56;12.70;;;5.05;;
80187;SDS011;73735;52.134;5.436;2023-11-21T14:06:46;14.73;;;5.78;;
80187;SDS011;73735;52.134;5.436;2023-11-21T14:09:19;15.13;;;5.80;;
80187;SDS011;73735;52.134;5.436;2023-11-21T14:11:51;16.80;;;6.47;;
80187;SDS011;73735;52.134;5.436;2023-11-21T14:14:21;15.05;;;5.93;;
80187;SDS011;73735;52.134;5.436;2023-11-21T14:16:48;13.57;;;6.00;;
80187;SDS011;73735;52.134;5.436;2023-11-21T14:19:14;15.15;;;6.35;;
80187;SDS011;73735;52.134;5.436;2023-11-21T14:21:44;14.55;;;5.65;;
80187;SDS011;73735;52.134;5.436;2023-11-21T14:24:11;14.40;;;5.20;;
80187;SDS011;73735;52.134;5.436;2023-11-21T14:26:45;15.90;;;6.70;;
80187;SDS011;73735;52.134;5.436;2023-11-21T14:29:12;14.43;;;5.45;;
80187;SDS011;73735;52.134;5.436;2023-11-21T14:31:42;15.65;;;6.20;;
80187;SDS011;73735;52.134;5.436;2023-11-21T14:34:09;15.68;;;6.68;;
80187;SDS011;73735;52.134;5.436;2023-11-21T14:36:38;14.88;;;6.25;;
80187;SDS011;73735;52.134;5.436;2023-11-21T14:39:07;19.23;;;7.60;;
80187;SDS011;73735;52.134;5.436;2023-11-21T14:41:37;17.65;;;6.70;;
80187;SDS011;73735;52.134;5.436;2023-11-21T14:44:05;16.48;;;6.78;;
80187;SDS011;73735;52.134;5.436;2023-11-21T14:46:33;17.08;;;6.10;;
80187;SDS011;73735;52.134;5.436;2023-11-21T14:49:03;22.17;;;7.55;;
80187;SDS011;73735;52.134;5.436;2023-11-21T14:51:46;17.48;;;6.75;;
80187;SDS011;73735;52.134;5.436;2023-11-21T14:54:22;17.58;;;6.25;;
80187;SDS011;73735;52.134;5.436;2023-11-21T14:57:12;16.30;;;6.28;;
80187;SDS011;73735;52.134;5.436;2023-11-21T14:59:44;16.73;;;6.70;;
80187;SDS011;73735;52.134;5.436;2023-11-21T15:02:19;16.38;;;7.13;;
80187;SDS011;73735;52.134;5.436;2023-11-21T15:05:08;14.68;;;7.07;;
80187;SDS011;73735;52.134;5.436;2023-11-21T15:07:41;17.73;;;7.78;;
80187;SDS011;73735;52.134;5.436;2023-11-21T15:10:07;14.57;;;6.13;;
80187;SDS011;73735;52.134;5.436;2023-11-21T15:12:42;17.25;;;7.25;;
80187;SDS011;73735;52.134;5.436;2023-11-21T15:15:10;17.25;;;7.30;;
80187;SDS011;73735;52.134;5.436;2023-11-21T15:17:37;18.05;;;7.60;;